Aeroporto :
LOGIN :

Iscrizione | Disclaimer

   EN    FR    IT 

 










Sommario :    VFR   VFR Marginale   IFR   IFR Intensivo   IFR Molto Intensivo
Visibilità : 
Base nubi : 
>= 8 km
>= 3000ft
5 / 8 km
1000 / 3000 ft
1500m / 5 km
500 / 1000 ft
800 / 1500m
200 / 500 ft
< 800m
< 200 ft
Simboli :   Temporali  Nebbia  Neve Forte  Precipitazioni Forti  Vento > 20 kt
SIGMETs :   Varie  Temporali  Ghiacco  Turbolenza  Onda orograficha  Ceneri Vulcaniche






- Altitudine del aeroporto : 125 ft
- Codice IATA : MGL


EDLN - Mönchengladbach

ULTIMO METAR :
  • 150920Z 25010KT 220V290 9999 FEW033 09/04 Q0999

METARs OBSOLETI :
  • 150850Z 25010G22KT 220V310 9999 FEW032 08/04 Q0998
  • 150820Z 24011KT 210V290 9999 SCT027 08/05 Q0998
  • 150750Z 24011KT 200V290 CAVOK 08/05 Q0996
  • 150720Z 24009KT 220V280 CAVOK 08/05 Q0996
  • 150650Z AUTO 24011KT 220V280 9999 // SCT043/// BKN052/// BKN095/// 08/05 Q0995

TAF TAF EDLN
Valido dal 15 a 09 ore il 15 a 18 ore UTC


150800Z 1509/1518 24010KT CAVOK
TEMPO 1509/1517 24015G25KT



MetMap, La meteo Aeronautica in un colpo d'occhio ! - Copyright ORBIFLY Dicembre 2007 - Disclaimer

ORBIFLY MET'MAP TEAM :

Programmazione e sviluppo : Alexandra Zaïnal
Concezione : Baudouin d'Aumeries
Aiuto per la programmazione : Marc-Olivier Méhu
Supporto tecnico e logistico : Manuel Goepfert
Aiuto per la traduzione : Arnaldo La Scala

Contatto : metmap@orbifly.com




FONTI E CREDITI :

   NOAA